sensor_id;sensor_type;location;lat;lon;timestamp;pressure;altitude;pressure_sealevel;temperature;humidity
66524;BME280;53350;52.210;5.160;2023-05-23T00:01:40;101999.16;;;16.04;75.36
66524;BME280;53350;52.210;5.160;2023-05-23T00:04:07;102008.94;;;15.88;75.51
66524;BME280;53350;52.210;5.160;2023-05-23T00:06:34;102008.09;;;15.88;75.59
66524;BME280;53350;52.210;5.160;2023-05-23T00:09:03;102002.94;;;15.86;75.32
66524;BME280;53350;52.210;5.160;2023-05-23T00:11:30;102001.34;;;15.76;75.95
66524;BME280;53350;52.210;5.160;2023-05-23T00:13:57;102009.13;;;15.76;76.10
66524;BME280;53350;52.210;5.160;2023-05-23T00:16:25;102006.53;;;15.76;76.03
66524;BME280;53350;52.210;5.160;2023-05-23T00:18:51;102005.63;;;15.81;76.06
66524;BME280;53350;52.210;5.160;2023-05-23T00:21:18;102014.22;;;15.84;76.09
66524;BME280;53350;52.210;5.160;2023-05-23T00:23:44;102016.84;;;15.82;76.07
66524;BME280;53350;52.210;5.160;2023-05-23T00:26:11;102017.72;;;15.81;76.08
66524;BME280;53350;52.210;5.160;2023-05-23T00:28:38;102021.22;;;15.78;76.11
66524;BME280;53350;52.210;5.160;2023-05-23T00:31:05;102023.81;;;15.81;75.92
66524;BME280;53350;52.210;5.160;2023-05-23T00:33:31;102025.59;;;15.75;76.08
66524;BME280;53350;52.210;5.160;2023-05-23T00:35:58;102024.72;;;15.73;76.11
66524;BME280;53350;52.210;5.160;2023-05-23T00:38:25;102018.75;;;15.68;76.14
66524;BME280;53350;52.210;5.160;2023-05-23T00:40:52;102024.84;;;15.67;76.05
66524;BME280;53350;52.210;5.160;2023-05-23T00:43:19;102024.84;;;15.65;76.12
66524;BME280;53350;52.210;5.160;2023-05-23T00:45:48;102021.53;;;15.55;76.64
66524;BME280;53350;52.210;5.160;2023-05-23T00:48:14;102024.22;;;15.49;76.71
66524;BME280;53350;52.210;5.160;2023-05-23T00:50:41;102020.75;;;15.50;76.77
66524;BME280;53350;52.210;5.160;2023-05-23T00:53:08;102025.34;;;15.31;77.62
66524;BME280;53350;52.210;5.160;2023-05-23T00:55:35;102028.81;;;15.28;77.45
66524;BME280;53350;52.210;5.160;2023-05-23T00:58:01;102037.53;;;15.24;77.63
66524;BME280;53350;52.210;5.160;2023-05-23T01:00:27;102040.94;;;15.29;77.53
66524;BME280;53350;52.210;5.160;2023-05-23T01:02:55;102027.91;;;15.33;77.63
66524;BME280;53350;52.210;5.160;2023-05-23T01:05:22;102030.50;;;15.33;77.60
66524;BME280;53350;52.210;5.160;2023-05-23T01:07:49;102023.56;;;15.33;77.90
66524;BME280;53350;52.210;5.160;2023-05-23T01:10:19;102022.72;;;15.33;78.33
66524;BME280;53350;52.210;5.160;2023-05-23T01:12:57;102030.44;;;15.37;78.23
66524;BME280;53350;52.210;5.160;2023-05-23T01:15:33;102026.94;;;15.41;78.52
66524;BME280;53350;52.210;5.160;2023-05-23T01:18:06;102028.69;;;15.38;78.77
66524;BME280;53350;52.210;5.160;2023-05-23T01:20:39;102030.47;;;15.36;78.67
66524;BME280;53350;52.210;5.160;2023-05-23T01:23:17;102025.28;;;15.36;78.79
66524;BME280;53350;52.210;5.160;2023-05-23T01:26:02;102025.38;;;15.26;79.16
66524;BME280;53350;52.210;5.160;2023-05-23T01:28:40;102029.78;;;15.21;78.88
66524;BME280;53350;52.210;5.160;2023-05-23T01:31:09;102035.84;;;15.20;78.96
66524;BME280;53350;52.210;5.160;2023-05-23T01:33:37;102034.94;;;15.24;78.98
66524;BME280;53350;52.210;5.160;2023-05-23T01:36:05;102032.31;;;15.26;78.73
66524;BME280;53350;52.210;5.160;2023-05-23T01:38:33;102034.84;;;15.30;78.64
66524;BME280;53350;52.210;5.160;2023-05-23T01:40:59;102039.13;;;15.35;78.34
66524;BME280;53350;52.210;5.160;2023-05-23T01:43:26;102040.09;;;15.26;78.76
66524;BME280;53350;52.210;5.160;2023-05-23T01:45:55;102035.78;;;15.23;78.44
66524;BME280;53350;52.210;5.160;2023-05-23T01:48:23;102041.81;;;15.27;78.38
66524;BME280;53350;52.210;5.160;2023-05-23T01:50:52;102043.59;;;15.23;79.12
66524;BME280;53350;52.210;5.160;2023-05-23T01:53:20;102050.53;;;15.23;78.77
66524;BME280;53350;52.210;5.160;2023-05-23T01:55:47;102051.44;;;15.19;79.21
66524;BME280;53350;52.210;5.160;2023-05-23T01:58:14;102040.25;;;15.13;78.95
66524;BME280;53350;52.210;5.160;2023-05-23T02:00:41;102041.09;;;15.16;78.78
66524;BME280;53350;52.210;5.160;2023-05-23T02:03:08;102041.06;;;15.17;78.69
66524;BME280;53350;52.210;5.160;2023-05-23T02:05:35;102043.66;;;15.19;78.36
66524;BME280;53350;52.210;5.160;2023-05-23T02:08:02;102034.91;;;15.26;78.09
66524;BME280;53350;52.210;5.160;2023-05-23T02:10:28;102033.16;;;15.26;77.97
66524;BME280;53350;52.210;5.160;2023-05-23T02:12:54;102034.88;;;15.27;77.60
66524;BME280;53350;52.210;5.160;2023-05-23T02:15:21;102043.50;;;15.31;77.79
66524;BME280;53350;52.210;5.160;2023-05-23T02:17:47;102050.38;;;15.35;77.43
66524;BME280;53350;52.210;5.160;2023-05-23T02:20:15;102051.16;;;15.42;77.35
66524;BME280;53350;52.210;5.160;2023-05-23T02:22:43;102046.78;;;15.42;77.14
66524;BME280;53350;52.210;5.160;2023-05-23T02:25:09;102054.59;;;15.44;77.04
66524;BME280;53350;52.210;5.160;2023-05-23T02:27:36;102061.53;;;15.42;76.85
66524;BME280;53350;52.210;5.160;2023-05-23T02:30:03;102057.97;;;15.49;76.82
66524;BME280;53350;52.210;5.160;2023-05-23T02:32:29;102064.09;;;15.43;76.67
66524;BME280;53350;52.210;5.160;2023-05-23T02:34:56;102063.34;;;15.37;76.61
66524;BME280;53350;52.210;5.160;2023-05-23T02:37:25;102072.78;;;15.41;76.43
66524;BME280;53350;52.210;5.160;2023-05-23T02:39:51;102070.16;;;15.42;76.37
66524;BME280;53350;52.210;5.160;2023-05-23T02:42:17;102079.63;;;15.46;76.28
66524;BME280;53350;52.210;5.160;2023-05-23T02:44:44;102076.16;;;15.49;75.78
66524;BME280;53350;52.210;5.160;2023-05-23T02:47:10;102085.66;;;15.50;75.81
66524;BME280;53350;52.210;5.160;2023-05-23T02:49:37;102080.56;;;15.44;75.21
66524;BME280;53350;52.210;5.160;2023-05-23T02:52:04;102084.84;;;15.46;75.00
66524;BME280;53350;52.210;5.160;2023-05-23T02:54:31;102093.53;;;15.44;75.14
66524;BME280;53350;52.210;5.160;2023-05-23T02:56:58;102083.16;;;15.41;75.20
66524;BME280;53350;52.210;5.160;2023-05-23T02:59:25;102092.88;;;15.28;75.07
66524;BME280;53350;52.210;5.160;2023-05-23T03:01:52;102093.81;;;15.21;75.15
66524;BME280;53350;52.210;5.160;2023-05-23T03:04:18;102097.25;;;15.21;75.10
66524;BME280;53350;52.210;5.160;2023-05-23T03:06:45;102092.09;;;15.20;75.11
66524;BME280;53350;52.210;5.160;2023-05-23T03:09:14;102088.72;;;15.11;75.07
66524;BME280;53350;52.210;5.160;2023-05-23T03:11:42;102091.31;;;15.11;75.48
66524;BME280;53350;52.210;5.160;2023-05-23T03:14:08;102093.06;;;15.11;75.34
66524;BME280;53350;52.210;5.160;2023-05-23T03:16:35;102098.28;;;15.09;75.27
66524;BME280;53350;52.210;5.160;2023-05-23T03:19:01;102096.59;;;15.04;74.95
66524;BME280;53350;52.210;5.160;2023-05-23T03:21:28;102092.28;;;15.01;74.97
66524;BME280;53350;52.210;5.160;2023-05-23T03:23:55;102087.94;;;15.02;74.44
66524;BME280;53350;52.210;5.160;2023-05-23T03:26:21;102099.22;;;15.01;74.40
66524;BME280;53350;52.210;5.160;2023-05-23T03:28:50;102094.88;;;15.01;74.09
66524;BME280;53350;52.210;5.160;2023-05-23T03:31:16;102096.69;;;14.93;73.86
66524;BME280;53350;52.210;5.160;2023-05-23T03:33:42;102102.69;;;15.00;73.63
66524;BME280;53350;52.210;5.160;2023-05-23T03:36:09;102097.56;;;14.93;73.89
66524;BME280;53350;52.210;5.160;2023-05-23T03:38:35;102095.00;;;14.92;73.72
66524;BME280;53350;52.210;5.160;2023-05-23T03:41:02;102102.88;;;14.81;74.22
66524;BME280;53350;52.210;5.160;2023-05-23T03:43:28;102115.00;;;14.81;74.14
66524;BME280;53350;52.210;5.160;2023-05-23T03:45:56;102116.81;;;14.71;74.34
66524;BME280;53350;52.210;5.160;2023-05-23T03:48:22;102110.66;;;14.80;74.12
66524;BME280;53350;52.210;5.160;2023-05-23T03:50:49;102117.63;;;14.76;74.26
66524;BME280;53350;52.210;5.160;2023-05-23T03:53:15;102113.31;;;14.73;74.24
66524;BME280;53350;52.210;5.160;2023-05-23T03:55:41;102113.31;;;14.75;74.15
66524;BME280;53350;52.210;5.160;2023-05-23T03:58:08;102129.75;;;14.71;74.43
66524;BME280;53350;52.210;5.160;2023-05-23T04:00:34;102119.41;;;14.71;74.14
66524;BME280;53350;52.210;5.160;2023-05-23T04:03:02;102127.13;;;14.74;74.34
66524;BME280;53350;52.210;5.160;2023-05-23T04:05:29;102137.53;;;14.72;73.77
66524;BME280;53350;52.210;5.160;2023-05-23T04:07:56;102122.88;;;14.68;74.07
66524;BME280;53350;52.210;5.160;2023-05-23T04:10:25;102135.00;;;14.68;73.82
66524;BME280;53350;52.210;5.160;2023-05-23T04:12:51;102147.09;;;14.67;73.44
66524;BME280;53350;52.210;5.160;2023-05-23T04:15:18;102145.34;;;14.68;73.30
66524;BME280;53350;52.210;5.160;2023-05-23T04:17:45;102147.13;;;14.63;73.36
66524;BME280;53350;52.210;5.160;2023-05-23T04:20:13;102140.22;;;14.62;73.07
66524;BME280;53350;52.210;5.160;2023-05-23T04:22:39;102135.03;;;14.55;73.28
66524;BME280;53350;52.210;5.160;2023-05-23T04:25:07;102154.94;;;14.55;73.20
66524;BME280;53350;52.210;5.160;2023-05-23T04:27:33;102166.19;;;14.52;73.22
66524;BME280;53350;52.210;5.160;2023-05-23T04:30:00;102155.03;;;14.44;73.53
66524;BME280;53350;52.210;5.160;2023-05-23T04:32:26;102155.81;;;14.51;72.86
66524;BME280;53350;52.210;5.160;2023-05-23T04:34:53;102160.25;;;14.36;73.24
66524;BME280;53350;52.210;5.160;2023-05-23T04:37:22;102165.44;;;14.36;73.32
66524;BME280;53350;52.210;5.160;2023-05-23T04:39:50;102178.41;;;14.36;73.03
66524;BME280;53350;52.210;5.160;2023-05-23T04:42:17;102166.31;;;14.37;72.70
66524;BME280;53350;52.210;5.160;2023-05-23T04:44:48;102168.88;;;14.38;72.04
66524;BME280;53350;52.210;5.160;2023-05-23T04:47:15;102162.88;;;14.33;72.25
66524;BME280;53350;52.210;5.160;2023-05-23T04:49:42;102172.38;;;14.33;72.30
66524;BME280;53350;52.210;5.160;2023-05-23T04:52:08;102164.59;;;14.34;72.16
66524;BME280;53350;52.210;5.160;2023-05-23T04:54:36;102181.88;;;14.32;71.95
66524;BME280;53350;52.210;5.160;2023-05-23T04:57:08;102185.34;;;14.34;71.62
66524;BME280;53350;52.210;5.160;2023-05-23T04:59:36;102193.94;;;14.38;70.55
66524;BME280;53350;52.210;5.160;2023-05-23T05:02:03;102187.06;;;14.31;70.33
66524;BME280;53350;52.210;5.160;2023-05-23T05:04:29;102191.41;;;14.29;69.90
66524;BME280;53350;52.210;5.160;2023-05-23T05:06:56;102191.47;;;14.22;69.88
66524;BME280;53350;52.210;5.160;2023-05-23T05:09:22;102199.28;;;14.08;69.81
66524;BME280;53350;52.210;5.160;2023-05-23T05:11:51;102213.16;;;13.97;69.32
66524;BME280;53350;52.210;5.160;2023-05-23T05:14:17;102204.50;;;14.02;69.12
66524;BME280;53350;52.210;5.160;2023-05-23T05:16:44;102224.34;;;14.06;69.28
66524;BME280;53350;52.210;5.160;2023-05-23T05:19:11;102230.44;;;13.95;69.65
66524;BME280;53350;52.210;5.160;2023-05-23T05:21:37;102217.44;;;14.08;68.95
66524;BME280;53350;52.210;5.160;2023-05-23T05:24:04;102221.78;;;14.06;68.87
66524;BME280;53350;52.210;5.160;2023-05-23T05:26:30;102232.13;;;14.08;68.98
66524;BME280;53350;52.210;5.160;2023-05-23T05:28:58;102231.25;;;14.06;68.56
66524;BME280;53350;52.210;5.160;2023-05-23T05:31:24;102249.38;;;14.12;68.43
66524;BME280;53350;52.210;5.160;2023-05-23T05:33:51;102233.84;;;14.07;68.17
66524;BME280;53350;52.210;5.160;2023-05-23T05:36:18;102240.75;;;14.10;67.78
66524;BME280;53350;52.210;5.160;2023-05-23T05:38:45;102250.28;;;14.05;68.27
66524;BME280;53350;52.210;5.160;2023-05-23T05:41:12;102253.75;;;13.95;68.55
66524;BME280;53350;52.210;5.160;2023-05-23T05:43:39;102252.03;;;13.95;68.66
66524;BME280;53350;52.210;5.160;2023-05-23T05:46:06;102250.28;;;13.97;68.80
66524;BME280;53350;52.210;5.160;2023-05-23T05:48:33;102251.16;;;13.99;69.24
66524;BME280;53350;52.210;5.160;2023-05-23T05:50:59;102264.09;;;14.01;69.46
66524;BME280;53350;52.210;5.160;2023-05-23T05:53:27;102264.97;;;14.01;69.03
66524;BME280;53350;52.210;5.160;2023-05-23T05:55:54;102267.56;;;14.01;69.06
66524;BME280;53350;52.210;5.160;2023-05-23T05:58:20;102263.25;;;14.03;68.61
66524;BME280;53350;52.210;5.160;2023-05-23T06:00:47;102262.44;;;13.89;68.81
66524;BME280;53350;52.210;5.160;2023-05-23T06:03:15;102263.25;;;13.96;68.54
66524;BME280;53350;52.210;5.160;2023-05-23T06:05:41;102264.13;;;13.99;68.57
66524;BME280;53350;52.210;5.160;2023-05-23T06:08:08;102269.25;;;14.07;67.96
66524;BME280;53350;52.210;5.160;2023-05-23T06:10:36;102263.19;;;14.11;67.92
66524;BME280;53350;52.210;5.160;2023-05-23T06:13:03;102265.78;;;14.11;67.99
66524;BME280;53350;52.210;5.160;2023-05-23T06:15:30;102278.78;;;14.05;68.22
66524;BME280;53350;52.210;5.160;2023-05-23T06:17:56;102278.72;;;14.16;68.04
66524;BME280;53350;52.210;5.160;2023-05-23T06:20:24;102276.13;;;14.14;68.15
66524;BME280;53350;52.210;5.160;2023-05-23T06:22:50;102283.91;;;14.16;68.52
66524;BME280;53350;52.210;5.160;2023-05-23T06:25:17;102279.59;;;14.13;68.72
66524;BME280;53350;52.210;5.160;2023-05-23T06:27:43;102276.16;;;14.08;69.71
66524;BME280;53350;52.210;5.160;2023-05-23T06:30:11;102283.94;;;14.08;69.82
66524;BME280;53350;52.210;5.160;2023-05-23T06:32:39;102278.78;;;13.97;70.35
66524;BME280;53350;52.210;5.160;2023-05-23T06:35:06;102284.84;;;13.88;71.06
66524;BME280;53350;52.210;5.160;2023-05-23T06:37:34;102274.50;;;13.88;71.50
66524;BME280;53350;52.210;5.160;2023-05-23T06:40:00;102274.50;;;13.88;71.48
66524;BME280;53350;52.210;5.160;2023-05-23T06:42:27;102285.72;;;13.90;71.84
66524;BME280;53350;52.210;5.160;2023-05-23T06:44:53;102286.59;;;13.89;72.30
66524;BME280;53350;52.210;5.160;2023-05-23T06:47:20;102284.03;;;13.76;73.05
66524;BME280;53350;52.210;5.160;2023-05-23T06:49:47;102285.75;;;13.78;72.68
66524;BME280;53350;52.210;5.160;2023-05-23T06:52:13;102285.75;;;13.78;72.63
66524;BME280;53350;52.210;5.160;2023-05-23T06:54:42;102296.97;;;13.77;72.55
66524;BME280;53350;52.210;5.160;2023-05-23T06:57:08;102292.66;;;13.82;71.57
66524;BME280;53350;52.210;5.160;2023-05-23T06:59:35;102316.84;;;13.75;71.24
66524;BME280;53350;52.210;5.160;2023-05-23T07:02:01;102295.28;;;13.73;71.11
66524;BME280;53350;52.210;5.160;2023-05-23T07:04:27;102295.25;;;13.76;70.88
66524;BME280;53350;52.210;5.160;2023-05-23T07:06:54;102313.38;;;13.78;70.26
66524;BME280;53350;52.210;5.160;2023-05-23T07:09:20;102311.66;;;13.72;68.55
66524;BME280;53350;52.210;5.160;2023-05-23T07:11:48;102325.47;;;13.76;66.70
66524;BME280;53350;52.210;5.160;2023-05-23T07:14:15;102305.59;;;13.85;66.14
66524;BME280;53350;52.210;5.160;2023-05-23T07:16:41;102300.38;;;13.93;65.49
66524;BME280;53350;52.210;5.160;2023-05-23T07:19:07;102308.16;;;14.02;65.23
66524;BME280;53350;52.210;5.160;2023-05-23T07:21:34;102307.25;;;14.02;64.65
66524;BME280;53350;52.210;5.160;2023-05-23T07:24:01;102303.81;;;14.12;64.18
66524;BME280;53350;52.210;5.160;2023-05-23T07:26:27;102323.63;;;14.24;63.57
66524;BME280;53350;52.210;5.160;2023-05-23T07:28:55;102334.00;;;14.15;62.42
66524;BME280;53350;52.210;5.160;2023-05-23T07:31:21;102328.78;;;14.27;62.06
66524;BME280;53350;52.210;5.160;2023-05-23T07:33:48;102323.66;;;14.10;62.84
66524;BME280;53350;52.210;5.160;2023-05-23T07:36:14;102321.94;;;14.15;62.97
66524;BME280;53350;52.210;5.160;2023-05-23T07:38:42;102314.97;;;14.25;62.44
66524;BME280;53350;52.210;5.160;2023-05-23T07:41:08;102321.03;;;14.21;62.22
66524;BME280;53350;52.210;5.160;2023-05-23T07:43:35;102318.38;;;14.36;62.27
66524;BME280;53350;52.210;5.160;2023-05-23T07:46:02;102342.50;;;14.49;61.89
66524;BME280;53350;52.210;5.160;2023-05-23T07:48:29;102319.13;;;14.55;61.44
66524;BME280;53350;52.210;5.160;2023-05-23T07:50:56;102325.16;;;14.67;61.25
66524;BME280;53350;52.210;5.160;2023-05-23T07:53:22;102323.47;;;14.67;61.71
66524;BME280;53350;52.210;5.160;2023-05-23T07:55:48;102329.50;;;14.66;61.88
66524;BME280;53350;52.210;5.160;2023-05-23T07:58:15;102321.66;;;14.74;61.58
66524;BME280;53350;52.210;5.160;2023-05-23T08:00:41;102321.66;;;14.77;61.64
66524;BME280;53350;52.210;5.160;2023-05-23T08:03:09;102329.41;;;14.85;61.55
66524;BME280;53350;52.210;5.160;2023-05-23T08:05:36;102337.97;;;14.93;61.17
66524;BME280;53350;52.210;5.160;2023-05-23T08:08:03;102346.59;;;15.01;59.70
66524;BME280;53350;52.210;5.160;2023-05-23T08:10:29;102328.44;;;15.00;58.97
66524;BME280;53350;52.210;5.160;2023-05-23T08:12:56;102336.28;;;14.90;59.13
66524;BME280;53350;52.210;5.160;2023-05-23T08:15:24;102344.06;;;14.87;58.66
66524;BME280;53350;52.210;5.160;2023-05-23T08:17:51;102338.84;;;14.95;58.22
66524;BME280;53350;52.210;5.160;2023-05-23T08:20:22;102348.38;;;14.93;58.78
66524;BME280;53350;52.210;5.160;2023-05-23T08:22:54;102349.25;;;14.92;58.82
66524;BME280;53350;52.210;5.160;2023-05-23T08:25:22;102359.59;;;14.97;58.44
66524;BME280;53350;52.210;5.160;2023-05-23T08:27:49;102344.97;;;14.86;57.96
66524;BME280;53350;52.210;5.160;2023-05-23T08:30:15;102347.44;;;15.05;57.84
66524;BME280;53350;52.210;5.160;2023-05-23T08:32:42;102340.41;;;15.22;57.71
66524;BME280;53350;52.210;5.160;2023-05-23T08:35:08;102352.41;;;15.36;57.65
66524;BME280;53350;52.210;5.160;2023-05-23T08:37:36;102365.28;;;15.46;57.11
66524;BME280;53350;52.210;5.160;2023-05-23T08:40:05;102365.28;;;15.46;56.61
66524;BME280;53350;52.210;5.160;2023-05-23T08:42:33;102360.94;;;15.52;56.57
66524;BME280;53350;52.210;5.160;2023-05-23T08:44:59;102351.25;;;15.69;56.29
66524;BME280;53350;52.210;5.160;2023-05-23T08:47:27;102358.94;;;15.85;55.02
66524;BME280;53350;52.210;5.160;2023-05-23T08:49:54;102369.16;;;16.00;54.45
66524;BME280;53350;52.210;5.160;2023-05-23T08:52:24;102353.56;;;16.00;54.41
66524;BME280;53350;52.210;5.160;2023-05-23T08:54:52;102363.88;;;16.08;54.23
66524;BME280;53350;52.210;5.160;2023-05-23T08:57:18;102386.44;;;16.04;54.21
66524;BME280;53350;52.210;5.160;2023-05-23T08:59:45;102388.41;;;15.77;53.92
66524;BME280;53350;52.210;5.160;2023-05-23T09:02:13;102375.44;;;15.80;53.61
66524;BME280;53350;52.210;5.160;2023-05-23T09:04:40;102384.94;;;15.81;54.17
66524;BME280;53350;52.210;5.160;2023-05-23T09:07:08;102402.16;;;15.92;53.84
66524;BME280;53350;52.210;5.160;2023-05-23T09:09:36;102396.06;;;15.97;53.98
66524;BME280;53350;52.210;5.160;2023-05-23T09:12:05;102383.00;;;16.04;54.09
66524;BME280;53350;52.210;5.160;2023-05-23T09:14:31;102385.53;;;16.08;54.06
66524;BME280;53350;52.210;5.160;2023-05-23T09:17:01;102388.03;;;16.16;53.37
66524;BME280;53350;52.210;5.160;2023-05-23T09:19:27;102384.44;;;16.29;52.97
66524;BME280;53350;52.210;5.160;2023-05-23T09:21:54;102389.47;;;16.43;52.49
66524;BME280;53350;52.210;5.160;2023-05-23T09:24:21;102393.84;;;16.41;52.77
66524;BME280;53350;52.210;5.160;2023-05-23T09:26:47;102400.97;;;16.24;52.47
66524;BME280;53350;52.210;5.160;2023-05-23T09:29:18;102401.03;;;16.21;52.85
66524;BME280;53350;52.210;5.160;2023-05-23T09:31:44;102389.66;;;16.26;52.74
66524;BME280;53350;52.210;5.160;2023-05-23T09:34:11;102403.53;;;16.27;53.20
66524;BME280;53350;52.210;5.160;2023-05-23T09:36:39;102398.22;;;16.38;53.22
66524;BME280;53350;52.210;5.160;2023-05-23T09:39:10;102389.56;;;16.37;52.77
66524;BME280;53350;52.210;5.160;2023-05-23T09:41:37;102402.53;;;16.39;53.02
66524;BME280;53350;52.210;5.160;2023-05-23T09:44:07;102400.75;;;16.44;53.23
66524;BME280;53350;52.210;5.160;2023-05-23T09:46:36;102386.72;;;16.57;53.09
66524;BME280;53350;52.210;5.160;2023-05-23T09:49:14;102404.94;;;16.57;52.05
66524;BME280;53350;52.210;5.160;2023-05-23T09:51:41;102415.41;;;16.48;51.69
66524;BME280;53350;52.210;5.160;2023-05-23T09:54:07;102408.47;;;16.50;51.36
66524;BME280;53350;52.210;5.160;2023-05-23T09:56:39;102401.47;;;16.54;50.94
66524;BME280;53350;52.210;5.160;2023-05-23T09:59:08;102386.66;;;16.60;51.08
66524;BME280;53350;52.210;5.160;2023-05-23T10:01:40;102402.81;;;16.85;51.30
66524;BME280;53350;52.210;5.160;2023-05-23T10:04:08;102410.75;;;16.76;51.42
66524;BME280;53350;52.210;5.160;2023-05-23T10:06:40;102418.47;;;16.82;51.60
66524;BME280;53350;52.210;5.160;2023-05-23T10:09:12;102410.88;;;16.68;52.74
66524;BME280;53350;52.210;5.160;2023-05-23T10:12:35;102417.03;;;16.61;53.58
66524;BME280;53350;52.210;5.160;2023-05-23T10:15:06;102402.16;;;16.68;53.62
66524;BME280;53350;52.210;5.160;2023-05-23T10:17:51;102416.97;;;16.66;52.68
66524;BME280;53350;52.210;5.160;2023-05-23T10:20:21;102423.06;;;16.62;51.73
66524;BME280;53350;52.210;5.160;2023-05-23T10:22:50;102414.31;;;16.69;51.27
66524;BME280;53350;52.210;5.160;2023-05-23T10:25:17;102421.22;;;16.73;51.54
66524;BME280;53350;52.210;5.160;2023-05-23T10:27:44;102418.59;;;16.75;51.69
66524;BME280;53350;52.210;5.160;2023-05-23T10:30:14;102426.25;;;16.84;51.82
66524;BME280;53350;52.210;5.160;2023-05-23T10:32:42;102423.66;;;16.84;52.11
66524;BME280;53350;52.210;5.160;2023-05-23T10:35:15;102445.63;;;16.61;52.88
66524;BME280;53350;52.210;5.160;2023-05-23T10:37:48;102431.97;;;16.42;53.32
66524;BME280;53350;52.210;5.160;2023-05-23T10:40:23;102430.41;;;16.27;54.14
66524;BME280;53350;52.210;5.160;2023-05-23T10:42:56;102456.53;;;16.15;53.39
66524;BME280;53350;52.210;5.160;2023-05-23T10:45:27;102456.59;;;16.06;53.65
66524;BME280;53350;52.210;5.160;2023-05-23T10:47:55;102434.91;;;16.10;53.93
66524;BME280;53350;52.210;5.160;2023-05-23T10:50:32;102431.31;;;16.23;53.75
66524;BME280;53350;52.210;5.160;2023-05-23T10:52:59;102431.97;;;16.42;51.91
66524;BME280;53350;52.210;5.160;2023-05-23T10:55:30;102423.38;;;16.37;50.59
66524;BME280;53350;52.210;5.160;2023-05-23T10:58:10;102429.47;;;16.33;49.81
66524;BME280;53350;52.210;5.160;2023-05-23T11:00:36;102419.75;;;16.49;49.71
66524;BME280;53350;52.210;5.160;2023-05-23T11:03:05;102446.66;;;16.45;49.77
66524;BME280;53350;52.210;5.160;2023-05-23T11:05:33;102423.22;;;16.48;50.46
66524;BME280;53350;52.210;5.160;2023-05-23T11:08:06;102425.78;;;16.52;51.02
66524;BME280;53350;52.210;5.160;2023-05-23T11:10:52;102440.44;;;16.58;50.75
66524;BME280;53350;52.210;5.160;2023-05-23T11:13:19;102421.28;;;16.68;51.09
66524;BME280;53350;52.210;5.160;2023-05-23T11:15:46;102429.94;;;16.69;51.64
66524;BME280;53350;52.210;5.160;2023-05-23T11:18:21;102434.19;;;16.75;52.27
66524;BME280;53350;52.210;5.160;2023-05-23T11:20:50;102456.06;;;16.58;53.29
66524;BME280;53350;52.210;5.160;2023-05-23T11:23:17;102442.34;;;16.45;53.88
66524;BME280;53350;52.210;5.160;2023-05-23T11:25:45;102443.28;;;16.40;54.01
66524;BME280;53350;52.210;5.160;2023-05-23T11:28:12;102430.31;;;16.35;54.14
66524;BME280;53350;52.210;5.160;2023-05-23T11:30:39;102450.28;;;16.31;54.45
66524;BME280;53350;52.210;5.160;2023-05-23T11:33:07;102440.69;;;16.38;53.49
66524;BME280;53350;52.210;5.160;2023-05-23T11:35:37;102444.22;;;16.32;53.27
66524;BME280;53350;52.210;5.160;2023-05-23T11:38:03;102443.34;;;16.32;52.91
66524;BME280;53350;52.210;5.160;2023-05-23T11:40:31;102445.09;;;16.30;52.02
66524;BME280;53350;52.210;5.160;2023-05-23T11:42:59;102438.13;;;16.32;52.21
66524;BME280;53350;52.210;5.160;2023-05-23T11:45:27;102444.97;;;16.44;51.79
66524;BME280;53350;52.210;5.160;2023-05-23T11:47:55;102438.94;;;16.40;52.05
66524;BME280;53350;52.210;5.160;2023-05-23T11:50:21;102456.34;;;16.30;52.50
66524;BME280;53350;52.210;5.160;2023-05-23T11:52:49;102439.97;;;16.24;52.88
66524;BME280;53350;52.210;5.160;2023-05-23T11:55:17;102441.75;;;16.19;53.14
66524;BME280;53350;52.210;5.160;2023-05-23T11:57:44;102442.47;;;16.33;53.04
66524;BME280;53350;52.210;5.160;2023-05-23T12:00:11;102444.13;;;16.42;52.58
66524;BME280;53350;52.210;5.160;2023-05-23T12:02:38;102445.81;;;16.44;52.52
66524;BME280;53350;52.210;5.160;2023-05-23T12:05:08;102441.44;;;16.48;51.54
66524;BME280;53350;52.210;5.160;2023-05-23T12:07:37;102431.84;;;16.53;51.52
66524;BME280;53350;52.210;5.160;2023-05-23T12:10:08;102438.72;;;16.60;51.07
66524;BME280;53350;52.210;5.160;2023-05-23T12:12:34;102444.72;;;16.67;51.12
66524;BME280;53350;52.210;5.160;2023-05-23T12:15:01;102446.31;;;16.74;51.22
66524;BME280;53350;52.210;5.160;2023-05-23T12:17:29;102449.75;;;16.78;50.26
66524;BME280;53350;52.210;5.160;2023-05-23T12:19:55;102450.69;;;16.74;50.24
66524;BME280;53350;52.210;5.160;2023-05-23T12:22:22;102460.31;;;16.68;51.19
66524;BME280;53350;52.210;5.160;2023-05-23T12:24:52;102451.53;;;16.77;50.99
66524;BME280;53350;52.210;5.160;2023-05-23T12:27:25;102447.41;;;16.56;50.23
66524;BME280;53350;52.210;5.160;2023-05-23T12:30:03;102454.41;;;16.49;50.42
66524;BME280;53350;52.210;5.160;2023-05-23T12:32:30;102451.03;;;16.44;50.84
66524;BME280;53350;52.210;5.160;2023-05-23T12:34:56;102450.09;;;16.50;50.67
66524;BME280;53350;52.210;5.160;2023-05-23T12:37:23;102450.97;;;16.49;50.81
66524;BME280;53350;52.210;5.160;2023-05-23T12:39:49;102454.41;;;16.54;50.42
66524;BME280;53350;52.210;5.160;2023-05-23T12:42:16;102459.72;;;16.40;50.31
66524;BME280;53350;52.210;5.160;2023-05-23T12:44:44;102449.34;;;16.39;50.37
66524;BME280;53350;52.210;5.160;2023-05-23T12:47:12;102453.69;;;16.38;50.01
66524;BME280;53350;52.210;5.160;2023-05-23T12:49:39;102458.06;;;16.34;51.20
66524;BME280;53350;52.210;5.160;2023-05-23T12:52:06;102462.34;;;16.39;51.13
66524;BME280;53350;52.210;5.160;2023-05-23T12:54:32;102451.91;;;16.43;50.95